Time;durP1;ratioP1;P1;durP2;ratioP2;P2;SDS_P1;SDS_P2;PMS_P1;PMS_P2;Temp;Humidity;BMP_temperature;BMP_pressure;BME280_temperature;BME280_humidity;BME280_pressure;Samples;Min_cycle;Max_cycle;Signal;HPM_P1;HPM_P2
2023/05/05 00:00:20;;;;;;;8.85;3.67;;;12.40;97.70;;;;;;5073489;28;20040;-73
2023/05/05 00:02:46;;;;;;;6.50;3.65;;;12.40;98.00;;;;;;5073399;28;20050;-73
2023/05/05 00:05:13;;;;;;;7.05;3.53;;;12.30;97.80;;;;;;5073281;28;20036;-73
2023/05/05 00:07:39;;;;;;;8.40;4.25;;;12.30;98.10;;;;;;5091206;28;20507;-73
2023/05/05 00:10:05;;;;;;;8.18;3.80;;;12.20;98.20;;;;;;5056862;28;20024;-73
2023/05/05 00:12:30;;;;;;;10.95;4.22;;;12.20;98.50;;;;;;5073303;28;20101;-73
2023/05/05 00:14:56;;;;;;;10.15;3.75;;;12.20;98.60;;;;;;5073505;28;20042;-73
2023/05/05 00:17:22;;;;;;;9.68;4.10;;;12.20;98.80;;;;;;5073150;28;20543;-73
2023/05/05 00:19:47;;;;;;;6.50;4.05;;;12.10;98.80;;;;;;5073283;28;20039;-73
2023/05/05 00:22:13;;;;;;;12.30;4.10;;;12.10;98.90;;;;;;5072941;28;20054;-73
2023/05/05 00:24:39;;;;;;;9.57;3.55;;;12.00;99.30;;;;;;5073127;28;20040;-73
2023/05/05 00:27:04;;;;;;;8.90;3.63;;;12.00;99.50;;;;;;5091209;28;20039;-72
2023/05/05 00:29:30;;;;;;;6.18;3.88;;;12.00;99.50;;;;;;5073123;28;20043;-73
2023/05/05 00:31:56;;;;;;;7.47;3.97;;;12.00;99.60;;;;;;5073216;28;20079;-72
2023/05/05 00:34:21;;;;;;;8.57;4.18;;;12.00;99.90;;;;;;5073170;28;20554;-73
2023/05/05 00:36:47;;;;;;;7.25;4.32;;;11.90;99.90;;;;;;5056231;28;20032;-73
2023/05/05 00:39:13;;;;;;;11.48;4.80;;;11.90;99.90;;;;;;5073052;28;20040;-72
2023/05/05 00:41:39;;;;;;;8.63;3.67;;;11.90;99.90;;;;;;5072523;28;20039;-73
2023/05/05 00:44:05;;;;;;;12.23;4.78;;;11.80;99.90;;;;;;5073068;28;20728;-73
2023/05/05 00:46:32;;;;;;;10.27;4.18;;;11.70;99.90;;;;;;5072821;28;20074;-72
2023/05/05 00:48:59;;;;;;;12.18;4.38;;;11.80;99.90;;;;;;5072806;28;20457;-73
2023/05/05 00:51:26;;;;;;;7.70;4.00;;;11.80;99.90;;;;;;5072859;28;20411;-73
2023/05/05 00:53:51;;;;;;;9.80;3.47;;;11.70;99.90;;;;;;5093043;28;20049;-72
2023/05/05 00:56:20;;;;;;;9.75;4.35;;;11.70;99.90;;;;;;5094577;28;20035;-72
2023/05/05 00:58:46;;;;;;;8.05;3.90;;;11.70;99.90;;;;;;5076588;28;20123;-72
2023/05/05 01:01:12;;;;;;;9.65;4.80;;;11.70;99.90;;;;;;5076113;28;20551;-72
2023/05/05 01:03:38;;;;;;;8.43;4.47;;;11.70;99.90;;;;;;5076639;28;20052;-73
2023/05/05 01:06:14;;;;;;;8.70;3.83;;;11.60;99.90;;;;;;5094409;28;20043;-73
2023/05/05 01:09:13;;;;;;;5.47;3.60;;;11.60;99.90;;;;;;5076107;28;20527;-72
2023/05/05 01:11:53;;;;;;;6.72;3.63;;;11.60;99.90;;;;;;5076127;28;20442;-72
2023/05/05 01:14:27;;;;;;;6.32;3.65;;;11.60;99.90;;;;;;5076177;28;20078;-72
2023/05/05 01:17:00;;;;;;;7.75;4.88;;;11.60;99.90;;;;;;5076119;28;20063;-73
2023/05/05 01:19:26;;;;;;;5.28;3.45;;;11.50;99.90;;;;;;5059460;28;20092;-73
2023/05/05 01:21:58;;;;;;;8.35;4.15;;;11.50;99.90;;;;;;5076083;28;20036;-73
2023/05/05 01:24:52;;;;;;;9.50;4.45;;;11.40;99.90;;;;;;5076031;28;20047;-73
2023/05/05 01:27:39;;;;;;;7.53;4.70;;;11.40;99.90;;;;;;4987757;28;20202;-72
2023/05/05 01:30:20;;;;;;;9.88;4.40;;;11.40;99.90;;;;;;5075872;28;20492;-72
2023/05/05 01:32:55;;;;;;;6.22;3.95;;;11.50;99.90;;;;;;5075908;28;20495;-72
2023/05/05 01:35:36;;;;;;;10.27;4.05;;;11.50;99.90;;;;;;5059013;28;20051;-71
2023/05/05 01:38:13;;;;;;;12.70;4.28;;;11.50;99.90;;;;;;5075786;28;20726;-71
2023/05/05 01:40:45;;;;;;;11.07;5.18;;;11.40;99.90;;;;;;5075674;28;20503;-72
2023/05/05 01:43:14;;;;;;;7.25;4.35;;;11.40;99.90;;;;;;5059273;28;20066;-71
2023/05/05 01:45:42;;;;;;;8.02;4.28;;;11.40;99.90;;;;;;5075709;28;20075;-72
2023/05/05 01:48:10;;;;;;;8.95;4.22;;;11.40;99.90;;;;;;5093380;28;20487;-71
2023/05/05 01:50:36;;;;;;;12.35;5.35;;;11.40;99.90;;;;;;5075377;28;20053;-71
2023/05/05 01:53:03;;;;;;;8.88;4.45;;;11.40;99.90;;;;;;5075408;28;20040;-72
2023/05/05 01:55:31;;;;;;;10.70;5.05;;;11.40;99.90;;;;;;5075536;28;20036;-72
2023/05/05 01:57:58;;;;;;;8.23;4.47;;;11.40;99.90;;;;;;5058540;28;20040;-72
2023/05/05 02:00:25;;;;;;;7.68;4.00;;;11.40;99.90;;;;;;5093210;28;20047;-71
2023/05/05 02:02:58;;;;;;;9.23;4.35;;;11.40;99.90;;;;;;5058508;28;20503;-72
2023/05/05 02:05:25;;;;;;;6.28;4.05;;;11.40;99.90;;;;;;5093181;28;20043;-72
2023/05/05 02:07:55;;;;;;;10.38;4.35;;;11.30;99.90;;;;;;5074948;28;20071;-72
2023/05/05 02:10:21;;;;;;;8.75;4.50;;;11.40;99.90;;;;;;5093209;28;20044;-72
2023/05/05 02:12:47;;;;;;;14.88;4.55;;;11.40;99.90;;;;;;5093213;28;20488;-72
2023/05/05 02:15:15;;;;;;;8.07;4.07;;;11.30;99.90;;;;;;5074711;28;20036;-71
2023/05/05 02:17:45;;;;;;;7.25;4.30;;;11.40;99.90;;;;;;5058207;28;20427;-72
2023/05/05 02:20:13;;;;;;;9.63;4.03;;;11.30;99.90;;;;;;5074924;28;20043;-72
2023/05/05 02:22:39;;;;;;;9.93;4.95;;;11.30;99.90;;;;;;5074844;28;20050;-72
2023/05/05 02:25:05;;;;;;;11.73;3.85;;;11.30;99.90;;;;;;5075067;28;20039;-72
2023/05/05 02:27:33;;;;;;;10.23;4.95;;;11.30;99.90;;;;;;5074460;28;20032;-72
2023/05/05 02:30:03;;;;;;;13.75;5.30;;;11.20;99.90;;;;;;5074935;28;20047;-72
2023/05/05 02:32:52;;;;;;;10.13;5.18;;;11.30;99.90;;;;;;5074865;28;20725;-72
2023/05/05 02:35:21;;;;;;;9.77;3.88;;;11.20;99.90;;;;;;5074827;28;20131;-72
2023/05/05 02:37:52;;;;;;;9.00;4.78;;;11.20;99.90;;;;;;5092556;28;20051;-72
2023/05/05 02:40:22;;;;;;;7.68;4.15;;;11.30;99.90;;;;;;5074453;28;20499;-72
2023/05/05 02:42:50;;;;;;;12.07;5.47;;;11.30;99.90;;;;;;5074503;28;20044;-71
2023/05/05 02:45:18;;;;;;;10.05;5.13;;;11.30;99.90;;;;;;5092427;28;20036;-72
2023/05/05 02:47:44;;;;;;;7.88;5.55;;;11.20;99.90;;;;;;5074324;28;20040;-72
2023/05/05 02:50:10;;;;;;;9.75;5.05;;;11.20;99.90;;;;;;5074392;28;20553;-72
2023/05/05 02:52:36;;;;;;;8.15;4.75;;;11.20;99.90;;;;;;5092184;28;20044;-71
2023/05/05 02:55:04;;;;;;;9.95;5.00;;;11.20;99.90;;;;;;5074245;28;20036;-72
2023/05/05 02:57:52;;;;;;;8.02;4.95;;;11.20;99.90;;;;;;5074378;28;20460;-72
2023/05/05 03:00:31;;;;;;;8.80;4.57;;;11.20;99.90;;;;;;5074149;28;20047;-71
2023/05/05 03:03:12;;;;;;;11.35;4.57;;;11.10;99.90;;;;;;5092261;28;20447;-71
2023/05/05 03:05:48;;;;;;;9.55;4.45;;;11.10;99.90;;;;;;5092429;28;20047;-72
2023/05/05 03:08:17;;;;;;;6.07;4.00;;;11.10;99.90;;;;;;5074179;28;20035;-72
2023/05/05 03:11:04;;;;;;;11.48;5.63;;;11.10;99.90;;;;;;5092150;28;20032;-71
2023/05/05 03:13:33;;;;;;;9.05;4.15;;;11.20;99.90;;;;;;5074110;28;20541;-72
2023/05/05 03:16:05;;;;;;;9.43;4.97;;;11.20;99.90;;;;;;5056503;28;20036;-72
2023/05/05 03:18:33;;;;;;;6.90;4.55;;;11.10;99.90;;;;;;5091331;28;20040;-72
2023/05/05 03:21:07;;;;;;;6.65;4.50;;;11.10;99.90;;;;;;5091977;28;20040;-71
2023/05/05 03:23:34;;;;;;;8.05;4.40;;;11.10;99.90;;;;;;5092053;28;20081;-72
2023/05/05 03:26:00;;;;;;;7.97;4.25;;;11.10;99.90;;;;;;5073746;28;20044;-71
2023/05/05 03:28:26;;;;;;;9.45;4.75;;;11.20;99.90;;;;;;5073583;28;20489;-71
2023/05/05 03:30:52;;;;;;;8.23;4.00;;;11.20;99.90;;;;;;5092037;28;20039;-71
2023/05/05 03:33:18;;;;;;;7.78;4.85;;;11.20;99.90;;;;;;5074061;28;20036;-72
2023/05/05 03:35:44;;;;;;;9.02;4.38;;;11.10;99.90;;;;;;5073614;28;20032;-71
2023/05/05 03:38:09;;;;;;;11.15;4.38;;;11.20;99.90;;;;;;5073963;28;20136;-71
2023/05/05 03:40:35;;;;;;;10.55;4.53;;;11.10;99.90;;;;;;5091681;28;20047;-71
2023/05/05 03:43:00;;;;;;;11.27;4.25;;;11.10;99.90;;;;;;5073634;28;20504;-71
2023/05/05 03:45:26;;;;;;;6.70;4.05;;;11.10;99.90;;;;;;5091834;28;20036;-71
2023/05/05 03:47:51;;;;;;;8.63;4.55;;;11.10;99.90;;;;;;5091524;28;20048;-71
2023/05/05 03:50:17;;;;;;;10.95;4.70;;;11.10;99.90;;;;;;5091756;28;20032;-71
2023/05/05 03:52:43;;;;;;;6.65;4.03;;;11.00;99.90;;;;;;5091410;28;20160;-72
2023/05/05 03:55:08;;;;;;;9.00;4.57;;;11.10;99.90;;;;;;5056659;28;20036;-71
2023/05/05 03:57:34;;;;;;;6.13;4.13;;;11.00;99.90;;;;;;5073587;28;20048;-71
2023/05/05 04:00:00;;;;;;;6.85;4.57;;;11.00;99.90;;;;;;5073499;28;20073;-71
2023/05/05 04:02:25;;;;;;;7.32;4.25;;;11.00;99.90;;;;;;5091463;28;20109;-71
2023/05/05 04:04:51;;;;;;;8.65;4.38;;;11.00;99.90;;;;;;5073370;28;20036;-71
2023/05/05 04:07:16;;;;;;;11.80;4.88;;;11.10;99.90;;;;;;5073248;28;20594;-72
2023/05/05 04:09:45;;;;;;;7.10;4.40;;;11.10;99.90;;;;;;5073622;28;20051;-72
2023/05/05 04:12:11;;;;;;;8.73;4.28;;;11.10;99.90;;;;;;5073245;28;20036;-72
2023/05/05 04:14:36;;;;;;;8.93;4.55;;;11.10;99.90;;;;;;5073353;28;20036;-72
2023/05/05 04:17:02;;;;;;;7.15;3.90;;;11.20;99.90;;;;;;5091352;28;20036;-72
2023/05/05 04:19:31;;;;;;;10.07;3.90;;;11.20;99.90;;;;;;5073351;28;20076;-73
2023/05/05 04:21:56;;;;;;;6.90;4.15;;;11.20;99.90;;;;;;5073401;28;20402;-73
2023/05/05 04:24:23;;;;;;;11.13;5.40;;;11.20;99.90;;;;;;5073176;28;20040;-73
2023/05/05 04:26:50;;;;;;;11.15;4.70;;;11.20;99.90;;;;;;5091810;28;20047;-73
2023/05/05 04:29:16;;;;;;;9.15;4.70;;;11.20;99.90;;;;;;5077304;28;20036;-73
2023/05/05 04:31:42;;;;;;;8.52;4.82;;;11.30;99.90;;;;;;5095017;28;20039;-73
2023/05/05 04:34:07;;;;;;;6.35;4.47;;;11.20;99.90;;;;;;5077171;28;20032;-73
2023/05/05 04:36:33;;;;;;;6.85;4.47;;;11.20;99.90;;;;;;5076720;28;20084;-73
2023/05/05 04:38:59;;;;;;;7.70;4.45;;;11.20;99.90;;;;;;5094989;28;20036;-73
2023/05/05 04:41:25;;;;;;;9.98;4.95;;;11.20;99.90;;;;;;5076957;28;20043;-73
2023/05/05 04:43:50;;;;;;;6.38;5.07;;;11.20;99.90;;;;;;5095093;28;20518;-73
2023/05/05 04:46:16;;;;;;;9.13;4.68;;;11.10;99.90;;;;;;5060163;28;20491;-73
2023/05/05 04:48:41;;;;;;;9.30;4.97;;;11.10;99.90;;;;;;5076536;28;20048;-73
2023/05/05 04:51:07;;;;;;;11.85;5.10;;;11.10;99.90;;;;;;5091889;22;20041;-70
2023/05/05 04:53:33;;;;;;;6.78;5.03;;;11.00;99.90;;;;;;5054656;28;20090;-70
2023/05/05 04:56:00;;;;;;;6.50;4.82;;;11.00;99.90;;;;;;5054111;28;20125;-70
2023/05/05 04:58:26;;;;;;;7.00;5.38;;;10.90;99.90;;;;;;5054356;28;20033;-70
2023/05/05 05:00:52;;;;;;;9.50;5.28;;;10.90;99.90;;;;;;5053891;28;20463;-70
2023/05/05 05:03:17;;;;;;;11.73;5.88;;;10.80;99.90;;;;;;5054009;28;20120;-70
2023/05/05 05:05:43;;;;;;;10.57;5.70;;;10.80;99.90;;;;;;5036422;28;20064;-70
2023/05/05 05:08:09;;;;;;;10.73;5.55;;;10.70;99.90;;;;;;5019848;28;20511;-70
2023/05/05 05:10:35;;;;;;;9.60;5.50;;;10.70;99.90;;;;;;5054230;28;20037;-70
2023/05/05 05:13:00;;;;;;;10.05;5.78;;;10.70;99.90;;;;;;5053899;28;20045;-70
2023/05/05 05:15:26;;;;;;;7.72;5.60;;;10.60;99.90;;;;;;5053997;28;20044;-70
2023/05/05 05:17:52;;;;;;;11.25;5.65;;;10.50;99.90;;;;;;5053795;28;20040;-70
2023/05/05 05:20:17;;;;;;;7.82;5.40;;;10.50;99.90;;;;;;5054152;28;20041;-70
2023/05/05 05:22:43;;;;;;;10.23;5.32;;;10.50;99.90;;;;;;5054022;28;20037;-70
2023/05/05 05:25:09;;;;;;;12.15;5.32;;;10.50;99.90;;;;;;5053920;28;20044;-70
2023/05/05 05:27:35;;;;;;;12.45;5.60;;;10.50;99.90;;;;;;5053707;28;20049;-70
2023/05/05 05:30:01;;;;;;;8.23;5.20;;;10.50;99.90;;;;;;5053866;28;20171;-71
2023/05/05 05:32:27;;;;;;;8.95;6.38;;;10.40;99.90;;;;;;5066306;28;20173;-70
2023/05/05 05:34:53;;;;;;;8.02;5.90;;;10.40;99.90;;;;;;5073895;28;20556;-70
2023/05/05 05:37:19;;;;;;;11.25;6.00;;;10.40;99.90;;;;;;5073680;28;20051;-70
2023/05/05 05:39:50;;;;;;;9.13;6.00;;;10.30;99.90;;;;;;5073079;28;20044;-70
2023/05/05 05:42:16;;;;;;;9.10;6.30;;;10.30;99.90;;;;;;5073724;28;20045;-70
2023/05/05 05:44:42;;;;;;;8.48;6.13;;;10.30;99.90;;;;;;5073647;28;20043;-70
2023/05/05 05:47:07;;;;;;;16.88;6.18;;;10.30;99.90;;;;;;5073062;28;20101;-69
2023/05/05 05:49:33;;;;;;;9.45;6.78;;;10.40;99.90;;;;;;5073545;28;20041;-70
2023/05/05 05:51:58;;;;;;;9.18;5.90;;;10.40;99.90;;;;;;5073368;28;20041;-70
2023/05/05 05:54:24;;;;;;;9.63;6.45;;;10.40;99.90;;;;;;5073413;28;20564;-70
2023/05/05 05:56:49;;;;;;;8.02;5.60;;;10.40;99.90;;;;;;5073298;28;20094;-69
2023/05/05 05:59:15;;;;;;;8.43;5.90;;;10.30;99.90;;;;;;5073329;28;20097;-69
2023/05/05 06:01:40;;;;;;;13.23;7.25;;;10.30;99.90;;;;;;5073008;28;20050;-70
2023/05/05 06:04:06;;;;;;;11.45;6.65;;;10.40;99.90;;;;;;5073193;28;20040;-69
2023/05/05 06:06:31;;;;;;;12.65;7.18;;;10.50;99.90;;;;;;5072870;28;20037;-69
2023/05/05 06:08:57;;;;;;;11.13;6.22;;;10.60;99.90;;;;;;5072988;28;20093;-70
2023/05/05 06:11:22;;;;;;;9.38;6.15;;;10.60;99.90;;;;;;5073028;28;20121;-70
2023/05/05 06:13:48;;;;;;;9.02;6.18;;;10.70;99.90;;;;;;5072972;28;20182;-69
2023/05/05 06:16:13;;;;;;;11.15;6.45;;;10.70;99.90;;;;;;5072789;28;20040;-69
2023/05/05 06:18:39;;;;;;;9.20;6.18;;;10.70;99.90;;;;;;5072956;28;20068;-70
2023/05/05 06:21:05;;;;;;;9.68;6.75;;;10.70;99.90;;;;;;5072962;28;20047;-71
2023/05/05 06:23:31;;;;;;;12.38;6.78;;;10.80;99.90;;;;;;5072743;28;20043;-70
2023/05/05 06:25:56;;;;;;;8.27;5.63;;;10.80;99.90;;;;;;5072860;28;20090;-69
2023/05/05 06:28:22;;;;;;;11.00;6.80;;;10.80;99.90;;;;;;5072632;28;20041;-70
2023/05/05 06:30:48;;;;;;;10.23;6.68;;;10.80;99.90;;;;;;5072586;28;20036;-69
2023/05/05 06:33:13;;;;;;;13.13;6.82;;;10.90;99.90;;;;;;5072710;28;20520;-69
2023/05/05 06:35:39;;;;;;;10.95;6.57;;;10.90;99.90;;;;;;5072432;28;20392;-70
2023/05/05 06:38:04;;;;;;;12.75;6.78;;;10.90;99.90;;;;;;5072510;28;20118;-69
2023/05/05 06:40:30;;;;;;;14.35;7.15;;;11.00;99.90;;;;;;5072615;28;20132;-69
2023/05/05 06:42:56;;;;;;;12.38;7.03;;;11.10;99.90;;;;;;5072303;28;20044;-69
2023/05/05 06:45:21;;;;;;;11.05;6.45;;;11.30;99.90;;;;;;5072053;28;20032;-71
2023/05/05 06:47:48;;;;;;;10.20;7.43;;;11.50;99.90;;;;;;5054126;28;20050;-70
2023/05/05 06:50:14;;;;;;;15.45;7.03;;;11.70;99.90;;;;;;5053704;28;20040;-69
2023/05/05 06:52:40;;;;;;;9.52;7.10;;;12.00;99.90;;;;;;5071859;28;20037;-70
2023/05/05 06:55:06;;;;;;;9.80;6.97;;;11.90;99.90;;;;;;5054176;28;20040;-70
2023/05/05 06:57:31;;;;;;;12.77;6.95;;;12.00;99.90;;;;;;5054413;28;20067;-70
2023/05/05 06:59:57;;;;;;;9.88;7.18;;;12.00;99.90;;;;;;5054198;28;20043;-70
2023/05/05 07:02:22;;;;;;;9.63;7.35;;;12.00;99.90;;;;;;5072262;28;20119;-70
2023/05/05 07:04:48;;;;;;;15.18;8.00;;;12.00;99.90;;;;;;5072214;28;20040;-69
2023/05/05 07:07:14;;;;;;;12.45;6.97;;;12.00;99.90;;;;;;5071772;28;20075;-70
2023/05/05 07:09:40;;;;;;;12.10;7.50;;;12.00;99.90;;;;;;5054077;28;20063;-70
2023/05/05 07:12:06;;;;;;;9.82;6.13;;;11.90;99.90;;;;;;5053982;28;20047;-70
2023/05/05 07:14:31;;;;;;;13.10;6.13;;;11.90;99.90;;;;;;5053986;28;20035;-70
2023/05/05 07:16:57;;;;;;;8.57;6.63;;;11.90;99.90;;;;;;5053735;28;20113;-70
2023/05/05 07:19:22;;;;;;;12.07;6.40;;;11.90;99.90;;;;;;5071785;28;20044;-69
2023/05/05 07:21:48;;;;;;;11.52;8.27;;;11.90;99.90;;;;;;5054019;28;20070;-70
2023/05/05 07:24:13;;;;;;;10.93;6.95;;;12.10;99.90;;;;;;5071864;28;20496;-69
2023/05/05 07:26:39;;;;;;;10.50;7.38;;;12.20;99.90;;;;;;5053573;28;20037;-71
2023/05/05 07:29:05;;;;;;;12.57;7.68;;;12.60;99.90;;;;;;5071548;28;20041;-70
2023/05/05 07:31:31;;;;;;;11.05;7.68;;;12.70;99.90;;;;;;5071633;28;20141;-70
2023/05/05 07:33:57;;;;;;;11.75;6.82;;;13.00;99.90;;;;;;5071709;28;20079;-69
2023/05/05 07:36:23;;;;;;;11.57;7.95;;;13.40;99.90;;;;;;5071670;28;20042;-69
2023/05/05 07:38:48;;;;;;;16.10;6.85;;;13.90;99.90;;;;;;5071505;28;20171;-69
2023/05/05 07:41:14;;;;;;;10.68;6.25;;;14.40;99.90;;;;;;5053850;28;20053;-70
2023/05/05 07:43:40;;;;;;;12.73;6.95;;;14.50;99.90;;;;;;5071539;28;20631;-70
2023/05/05 07:46:07;;;;;;;11.55;7.40;;;14.70;99.90;;;;;;5071409;28;20154;-70
2023/05/05 07:48:32;;;;;;;10.95;7.32;;;14.80;99.90;;;;;;5046580;28;20033;-70
2023/05/05 07:50:58;;;;;;;9.80;6.47;;;15.00;99.90;;;;;;5050941;28;20041;-70
2023/05/05 07:53:24;;;;;;;11.38;6.68;;;15.00;99.90;;;;;;5041461;28;20404;-70
2023/05/05 07:55:50;;;;;;;12.05;6.88;;;15.40;99.90;;;;;;5051404;28;20091;-72
2023/05/05 07:58:15;;;;;;;8.07;6.43;;;15.30;99.90;;;;;;5033472;28;20048;-71
2023/05/05 08:00:42;;;;;;;10.73;6.63;;;15.50;99.90;;;;;;5051529;28;20041;-71
2023/05/05 08:03:08;;;;;;;10.98;6.85;;;15.70;99.90;;;;;;5054114;28;20415;-71
2023/05/05 08:05:34;;;;;;;10.88;6.30;;;15.90;99.90;;;;;;5037454;28;20037;-71
2023/05/05 08:07:59;;;;;;;12.77;7.18;;;16.10;99.90;;;;;;5055246;28;20045;-71
2023/05/05 08:10:25;;;;;;;9.88;6.25;;;16.20;99.90;;;;;;5037726;28;20045;-71
2023/05/05 08:12:51;;;;;;;12.00;7.20;;;16.30;99.90;;;;;;5055069;28;20044;-71
2023/05/05 08:15:17;;;;;;;11.75;7.93;;;16.40;99.90;;;;;;5055103;28;20067;-71
2023/05/05 08:17:50;;;;;;;8.93;6.32;;;16.60;99.90;;;;;;5055245;28;20064;-71
2023/05/05 08:20:17;;;;;;;9.75;7.65;;;16.70;99.90;;;;;;5037261;28;20537;-70
2023/05/05 08:22:43;;;;;;;13.18;8.57;;;16.70;99.90;;;;;;5054569;28;20045;-69
2023/05/05 08:25:10;;;;;;;8.82;6.90;;;16.70;99.90;;;;;;5054962;28;20116;-69
2023/05/05 08:27:37;;;;;;;12.30;7.40;;;16.80;99.90;;;;;;5054644;28;20072;-69
2023/05/05 08:30:03;;;;;;;12.70;7.82;;;16.70;99.90;;;;;;5055135;28;20037;-69
2023/05/05 08:32:29;;;;;;;10.02;7.82;;;17.00;99.90;;;;;;5058289;28;20036;-69
2023/05/05 08:34:55;;;;;;;9.38;7.82;;;17.20;99.90;;;;;;5074801;28;20040;-69
2023/05/05 08:37:21;;;;;;;13.68;8.25;;;17.30;99.90;;;;;;5074677;28;20431;-69
2023/05/05 08:39:46;;;;;;;9.52;7.18;;;17.50;99.90;;;;;;5074764;28;20041;-73
2023/05/05 08:42:12;;;;;;;12.15;7.68;;;18.00;99.90;;;;;;5074477;28;20048;-73
2023/05/05 08:44:37;;;;;;;14.07;8.55;;;18.20;99.90;;;;;;5074075;28;20115;-73
2023/05/05 08:47:04;;;;;;;9.57;8.15;;;18.40;99.90;;;;;;5074414;28;20047;-73
2023/05/05 08:49:37;;;;;;;11.55;8.80;;;18.60;99.90;;;;;;5074707;28;20461;-73
2023/05/05 08:52:05;;;;;;;13.90;9.13;;;18.60;99.90;;;;;;5074430;28;20086;-73
2023/05/05 08:54:36;;;;;;;10.77;7.90;;;18.70;99.70;;;;;;5069139;28;20037;-73
2023/05/05 08:57:06;;;;;;;11.35;8.20;;;19.00;99.40;;;;;;5053762;28;20039;-73
2023/05/05 08:59:32;;;;;;;10.80;8.05;;;19.20;99.70;;;;;;5044702;28;20037;-73
2023/05/05 09:01:59;;;;;;;13.70;10.05;;;19.30;99.20;;;;;;5054019;28;20430;-73
2023/05/05 09:04:25;;;;;;;12.50;8.80;;;19.30;99.30;;;;;;5036424;28;20076;-73
2023/05/05 09:06:51;;;;;;;13.27;8.65;;;19.20;98.60;;;;;;5036378;28;20404;-73
2023/05/05 09:09:17;;;;;;;12.50;10.32;;;19.10;99.20;;;;;;5036297;28;20033;-73
2023/05/05 09:11:43;;;;;;;13.18;9.30;;;19.40;99.30;;;;;;5036504;28;20048;-73
2023/05/05 09:14:09;;;;;;;12.45;9.25;;;19.40;99.00;;;;;;5053081;28;20037;-73
2023/05/05 09:16:35;;;;;;;13.75;8.68;;;19.40;99.00;;;;;;5053356;28;20040;-73
2023/05/05 09:19:04;;;;;;;12.70;9.23;;;19.70;99.50;;;;;;5048222;28;20056;-72
2023/05/05 09:21:30;;;;;;;12.88;9.48;;;19.80;99.00;;;;;;5035320;28;20052;-73
2023/05/05 09:24:07;;;;;;;14.50;10.70;;;20.00;98.40;;;;;;5036084;28;20636;-73
2023/05/05 09:26:34;;;;;;;12.10;9.60;;;20.20;97.70;;;;;;5035573;28;20040;-73
2023/05/05 09:29:01;;;;;;;12.70;9.63;;;20.50;98.20;;;;;;5035803;28;20045;-73
2023/05/05 09:31:30;;;;;;;13.27;9.68;;;20.60;97.80;;;;;;5053904;28;20064;-73
2023/05/05 09:33:59;;;;;;;15.10;10.45;;;20.60;97.30;;;;;;5053921;28;20041;-73
2023/05/05 09:36:47;;;;;;;12.80;10.25;;;20.60;97.80;;;;;;5053776;28;20139;-74
2023/05/05 09:39:16;;;;;;;11.15;9.55;;;20.70;97.60;;;;;;5036011;28;20408;-73
2023/05/05 09:41:43;;;;;;;12.75;9.90;;;20.90;98.20;;;;;;5053677;28;20033;-73
2023/05/05 09:44:10;;;;;;;13.63;10.57;;;20.90;98.40;;;;;;5053639;28;20094;-73
2023/05/05 09:46:35;;;;;;;16.85;10.18;;;20.80;96.90;;;;;;5053262;28;20043;-73
2023/05/05 09:49:16;;;;;;;14.75;11.27;;;20.40;96.80;;;;;;5053228;28;20466;-73
2023/05/05 09:51:45;;;;;;;15.20;11.65;;;20.50;96.90;;;;;;5051453;28;20029;-74
2023/05/05 09:54:26;;;;;;;16.27;11.63;;;20.60;97.80;;;;;;5053271;28;20041;-73
2023/05/05 09:56:52;;;;;;;13.60;10.75;;;20.70;96.80;;;;;;5053172;28;20064;-74
2023/05/05 09:59:18;;;;;;;13.95;11.25;;;20.60;97.30;;;;;;5053263;28;20049;-74
2023/05/05 10:01:44;;;;;;;15.88;11.88;;;20.70;97.60;;;;;;5053360;28;20040;-74
2023/05/05 10:04:26;;;;;;;16.17;10.85;;;20.70;98.80;;;;;;5053066;28;20047;-73
2023/05/05 10:06:54;;;;;;;12.73;10.32;;;20.70;97.90;;;;;;5052953;28;20500;-73
2023/05/05 10:09:19;;;;;;;13.43;10.40;;;20.60;97.90;;;;;;5053131;28;20116;-74
2023/05/05 10:11:46;;;;;;;15.13;11.00;;;20.50;98.10;;;;;;5052380;28;20155;-74
2023/05/05 10:14:19;;;;;;;12.77;10.88;;;20.40;98.50;;;;;;5052827;28;20041;-73
2023/05/05 10:16:49;;;;;;;16.73;10.77;;;20.30;99.20;;;;;;5052955;28;20285;-73
2023/05/05 10:19:17;;;;;;;18.25;11.25;;;20.20;99.30;;;;;;5051659;28;20045;-73
2023/05/05 10:21:50;;;;;;;16.02;12.35;;;20.10;99.70;;;;;;5052770;28;20037;-73
2023/05/05 10:24:33;;;;;;;26.10;12.90;;;20.10;99.90;;;;;;5052785;28;20500;-73
2023/05/05 10:27:01;;;;;;;16.87;11.53;;;19.90;99.90;;;;;;5052648;28;20424;-73
2023/05/05 10:29:44;;;;;;;17.38;11.35;;;20.10;99.90;;;;;;5052852;28;20045;-73
2023/05/05 10:32:31;;;;;;;16.08;11.25;;;20.30;98.90;;;;;;5052611;28;20068;-73
2023/05/05 10:35:02;;;;;;;16.83;11.00;;;20.40;99.40;;;;;;5034905;28;20041;-74
2023/05/05 10:37:29;;;;;;;14.15;11.18;;;20.40;98.50;;;;;;5052596;28;20098;-74
2023/05/05 10:39:58;;;;;;;14.35;11.63;;;20.60;98.10;;;;;;5052669;28;20043;-73
2023/05/05 10:42:24;;;;;;;14.23;11.98;;;20.70;97.90;;;;;;5052506;28;20076;-73
2023/05/05 10:44:50;;;;;;;14.82;11.13;;;20.60;97.90;;;;;;5052363;28;20068;-74
2023/05/05 10:47:17;;;;;;;14.30;11.38;;;20.90;98.30;;;;;;5052163;28;20098;-74
2023/05/05 10:50:02;;;;;;;17.35;12.90;;;21.00;98.20;;;;;;5052613;28;20601;-74
2023/05/05 10:52:50;;;;;;;17.52;11.38;;;20.80;97.00;;;;;;5108509;22;20097;-70
2023/05/05 10:55:20;;;;;;;14.68;11.82;;;20.60;97.80;;;;;;5111124;28;20454;-70
2023/05/05 10:57:51;;;;;;;17.92;12.15;;;20.70;98.30;;;;;;5111448;28;20449;-71
2023/05/05 11:00:35;;;;;;;19.38;13.35;;;20.80;99.90;;;;;;5112765;28;20047;-71
2023/05/05 11:03:16;;;;;;;17.55;13.10;;;20.80;99.90;;;;;;5112385;28;20039;-70
2023/05/05 11:06:06;;;;;;;15.25;12.68;;;20.90;98.80;;;;;;5112465;28;20118;-70
2023/05/05 11:08:40;;;;;;;18.63;13.02;;;21.10;99.20;;;;;;5112513;28;20044;-70
2023/05/05 11:11:09;;;;;;;14.52;12.00;;;21.10;98.80;;;;;;5112609;28;20031;-71
2023/05/05 11:13:35;;;;;;;17.48;13.32;;;21.20;99.20;;;;;;5111463;28;20047;-70
2023/05/05 11:16:01;;;;;;;16.00;13.55;;;21.10;99.50;;;;;;5112205;28;20032;-70
2023/05/05 11:18:42;;;;;;;17.38;13.35;;;21.20;99.20;;;;;;5112200;28;20034;-70
2023/05/05 11:21:14;;;;;;;18.15;12.55;;;21.30;99.30;;;;;;5103791;28;20043;-69
2023/05/05 11:23:42;;;;;;;21.30;14.35;;;21.30;99.90;;;;;;5100506;28;20044;-71
2023/05/05 11:26:09;;;;;;;19.05;13.85;;;21.10;99.90;;;;;;5090677;28;20039;-71
2023/05/05 11:28:57;;;;;;;21.70;14.90;;;21.20;99.90;;;;;;5094402;28;20035;-70
2023/05/05 11:31:23;;;;;;;17.65;14.00;;;21.10;99.90;;;;;;5092765;28;20044;-70
2023/05/05 11:33:48;;;;;;;20.02;14.60;;;21.20;99.90;;;;;;5092002;28;20051;-70
2023/05/05 11:36:16;;;;;;;17.67;14.50;;;21.20;99.90;;;;;;5091401;28;20036;-70
2023/05/05 11:39:06;;;;;;;20.30;14.77;;;21.20;99.90;;;;;;5091573;28;20066;-71
2023/05/05 11:41:31;;;;;;;19.23;13.55;;;21.10;99.90;;;;;;5090270;28;20124;-71
2023/05/05 11:44:17;;;;;;;17.17;14.07;;;21.20;99.90;;;;;;5091903;28;20036;-71
2023/05/05 11:46:52;;;;;;;18.83;12.60;;;21.20;99.90;;;;;;5091587;28;20039;-71
2023/05/05 11:49:35;;;;;;;16.48;12.75;;;21.20;99.90;;;;;;5091741;28;20051;-71
2023/05/05 11:52:13;;;;;;;16.85;13.30;;;21.10;99.90;;;;;;5090284;28;20044;-70
2023/05/05 11:54:47;;;;;;;20.10;13.00;;;20.80;99.90;;;;;;5091718;28;20395;-70
2023/05/05 11:57:20;;;;;;;16.83;13.00;;;20.70;99.90;;;;;;5091487;28;20040;-68
2023/05/05 11:59:51;;;;;;;16.88;12.52;;;20.70;99.90;;;;;;5090244;28;20487;-68
2023/05/05 12:02:17;;;;;;;15.55;12.13;;;20.80;99.90;;;;;;5091646;28;20040;-68
2023/05/05 12:04:43;;;;;;;14.07;10.48;;;20.80;99.90;;;;;;5090336;28;20036;-68
2023/05/05 12:07:17;;;;;;;16.00;11.35;;;20.80;99.90;;;;;;5089988;28;20039;-68
2023/05/05 12:09:44;;;;;;;14.05;10.68;;;20.80;99.90;;;;;;5090176;28;20047;-68
2023/05/05 12:12:10;;;;;;;15.00;11.27;;;20.70;99.90;;;;;;5091491;28;20036;-67
2023/05/05 12:14:51;;;;;;;20.70;13.02;;;20.70;99.90;;;;;;5090110;28;20036;-68
2023/05/05 12:17:21;;;;;;;17.20;12.25;;;20.70;99.90;;;;;;5073151;28;20495;-69
2023/05/05 12:19:51;;;;;;;16.20;12.13;;;20.60;99.90;;;;;;5090034;28;20492;-69
2023/05/05 12:22:22;;;;;;;16.35;13.13;;;20.50;99.90;;;;;;5091496;28;20036;-68
2023/05/05 12:24:55;;;;;;;16.88;12.75;;;20.40;99.80;;;;;;5098113;28;20043;-68
2023/05/05 12:27:21;;;;;;;17.20;12.88;;;20.40;99.90;;;;;;5111807;28;20391;-68
2023/05/05 12:29:47;;;;;;;19.90;14.10;;;20.40;99.90;;;;;;5109830;28;20036;-68
2023/05/05 12:32:28;;;;;;;20.08;15.45;;;20.40;99.90;;;;;;5111525;28;20123;-69
2023/05/05 12:34:56;;;;;;;18.75;15.30;;;20.30;99.90;;;;;;5111254;28;20054;-69
2023/05/05 12:37:23;;;;;;;18.17;13.55;;;20.30;99.90;;;;;;5110568;28;20135;-69
2023/05/05 12:39:49;;;;;;;14.75;12.32;;;20.40;99.90;;;;;;5111249;28;20036;-70
2023/05/05 12:42:16;;;;;;;18.48;13.32;;;20.50;99.90;;;;;;5106858;28;20036;-70
2023/05/05 12:44:45;;;;;;;18.73;13.52;;;20.50;99.90;;;;;;5099218;28;20043;-70